sensor_id;sensor_type;location;lat;lon;timestamp;P1;durP1;ratioP1;P2;durP2;ratioP2
42670;SDS011;28283;55.426;37.756;2022-09-03T00:00:44;1.48;;;0.80;;
42670;SDS011;28283;55.426;37.756;2022-09-03T00:06:11;1.10;;;0.93;;
42670;SDS011;28283;55.426;37.756;2022-09-03T00:11:26;1.83;;;1.05;;
42670;SDS011;28283;55.426;37.756;2022-09-03T00:16:39;1.52;;;1.00;;
42670;SDS011;28283;55.426;37.756;2022-09-03T00:21:50;1.40;;;1.30;;
42670;SDS011;28283;55.426;37.756;2022-09-03T00:26:58;1.42;;;1.13;;
42670;SDS011;28283;55.426;37.756;2022-09-03T00:32:04;1.48;;;1.38;;
42670;SDS011;28283;55.426;37.756;2022-09-03T00:37:13;1.20;;;1.10;;
42670;SDS011;28283;55.426;37.756;2022-09-03T00:48:36;1.50;;;1.27;;
42670;SDS011;28283;55.426;37.756;2022-09-03T01:04:09;1.55;;;0.90;;
42670;SDS011;28283;55.426;37.756;2022-09-03T01:14:53;2.42;;;1.10;;
42670;SDS011;28283;55.426;37.756;2022-09-03T01:20:10;1.52;;;1.20;;
42670;SDS011;28283;55.426;37.756;2022-09-03T01:31:27;2.00;;;1.42;;
42670;SDS011;28283;55.426;37.756;2022-09-03T01:37:28;1.95;;;1.75;;
42670;SDS011;28283;55.426;37.756;2022-09-03T02:04:22;2.30;;;1.52;;
42670;SDS011;28283;55.426;37.756;2022-09-03T02:09:24;2.40;;;1.65;;
42670;SDS011;28283;55.426;37.756;2022-09-03T02:14:25;1.40;;;1.30;;
42670;SDS011;28283;55.426;37.756;2022-09-03T02:19:28;1.10;;;1.00;;
42670;SDS011;28283;55.426;37.756;2022-09-03T02:24:30;2.22;;;1.65;;
42670;SDS011;28283;55.426;37.756;2022-09-03T02:29:31;1.20;;;1.10;;
42670;SDS011;28283;55.426;37.756;2022-09-03T02:34:32;1.98;;;1.75;;
42670;SDS011;28283;55.426;37.756;2022-09-03T02:39:33;5.47;;;2.53;;
42670;SDS011;28283;55.426;37.756;2022-09-03T02:44:36;2.63;;;1.80;;
42670;SDS011;28283;55.426;37.756;2022-09-03T02:49:41;3.00;;;2.70;;
42670;SDS011;28283;55.426;37.756;2022-09-03T02:54:42;2.72;;;2.47;;
42670;SDS011;28283;55.426;37.756;2022-09-03T02:59:44;3.67;;;2.15;;
42670;SDS011;28283;55.426;37.756;2022-09-03T03:04:45;3.55;;;2.72;;
42670;SDS011;28283;55.426;37.756;2022-09-03T03:09:46;2.88;;;2.58;;
42670;SDS011;28283;55.426;37.756;2022-09-03T03:14:46;3.33;;;2.77;;
42670;SDS011;28283;55.426;37.756;2022-09-03T03:19:47;3.42;;;2.72;;
42670;SDS011;28283;55.426;37.756;2022-09-03T03:24:48;2.58;;;2.38;;
42670;SDS011;28283;55.426;37.756;2022-09-03T03:34:50;2.95;;;2.40;;
42670;SDS011;28283;55.426;37.756;2022-09-03T03:39:50;2.20;;;2.00;;
42670;SDS011;28283;55.426;37.756;2022-09-03T03:44:51;4.00;;;2.60;;
42670;SDS011;28283;55.426;37.756;2022-09-03T03:49:52;2.70;;;2.50;;
42670;SDS011;28283;55.426;37.756;2022-09-03T03:54:52;3.00;;;2.30;;
42670;SDS011;28283;55.426;37.756;2022-09-03T03:59:53;2.75;;;2.40;;
42670;SDS011;28283;55.426;37.756;2022-09-03T04:04:54;2.53;;;2.33;;
42670;SDS011;28283;55.426;37.756;2022-09-03T04:09:55;2.73;;;2.53;;
42670;SDS011;28283;55.426;37.756;2022-09-03T04:14:55;3.33;;;2.17;;
42670;SDS011;28283;55.426;37.756;2022-09-03T04:19:56;2.53;;;2.25;;
42670;SDS011;28283;55.426;37.756;2022-09-03T04:24:57;1.27;;;1.27;;
42670;SDS011;28283;55.426;37.756;2022-09-03T04:29:58;1.48;;;1.38;;
42670;SDS011;28283;55.426;37.756;2022-09-03T04:34:58;1.48;;;1.20;;
42670;SDS011;28283;55.426;37.756;2022-09-03T04:39:59;1.80;;;1.30;;
42670;SDS011;28283;55.426;37.756;2022-09-03T04:45:00;3.83;;;1.20;;
42670;SDS011;28283;55.426;37.756;2022-09-03T04:50:00;2.05;;;1.90;;
42670;SDS011;28283;55.426;37.756;2022-09-03T04:55:01;1.52;;;1.38;;
42670;SDS011;28283;55.426;37.756;2022-09-03T05:00:03;1.60;;;1.17;;
42670;SDS011;28283;55.426;37.756;2022-09-03T05:05:05;3.05;;;1.60;;
42670;SDS011;28283;55.426;37.756;2022-09-03T05:10:07;0.82;;;0.57;;
42670;SDS011;28283;55.426;37.756;2022-09-03T05:15:08;0.60;;;0.40;;
42670;SDS011;28283;55.426;37.756;2022-09-03T05:20:09;1.75;;;0.40;;
42670;SDS011;28283;55.426;37.756;2022-09-03T05:25:10;1.27;;;1.10;;
42670;SDS011;28283;55.426;37.756;2022-09-03T05:30:11;1.48;;;1.38;;
42670;SDS011;28283;55.426;37.756;2022-09-03T05:35:12;3.22;;;1.20;;
42670;SDS011;28283;55.426;37.756;2022-09-03T05:40:13;1.73;;;1.03;;
42670;SDS011;28283;55.426;37.756;2022-09-03T05:45:13;0.70;;;0.63;;
42670;SDS011;28283;55.426;37.756;2022-09-03T05:50:14;0.87;;;0.80;;
42670;SDS011;28283;55.426;37.756;2022-09-03T05:55:15;1.87;;;0.70;;
42670;SDS011;28283;55.426;37.756;2022-09-03T06:00:16;1.13;;;0.77;;
42670;SDS011;28283;55.426;37.756;2022-09-03T06:05:19;1.05;;;0.98;;
42670;SDS011;28283;55.426;37.756;2022-09-03T06:10:19;4.43;;;0.95;;
42670;SDS011;28283;55.426;37.756;2022-09-03T06:15:20;2.92;;;0.80;;
42670;SDS011;28283;55.426;37.756;2022-09-03T06:20:21;4.43;;;1.07;;
42670;SDS011;28283;55.426;37.756;2022-09-03T06:25:28;0.65;;;0.63;;
42670;SDS011;28283;55.426;37.756;2022-09-03T06:30:29;0.60;;;0.60;;
42670;SDS011;28283;55.426;37.756;2022-09-03T06:35:29;0.70;;;0.70;;
42670;SDS011;28283;55.426;37.756;2022-09-03T06:40:30;1.13;;;0.40;;
42670;SDS011;28283;55.426;37.756;2022-09-03T06:45:32;0.68;;;0.60;;
42670;SDS011;28283;55.426;37.756;2022-09-03T06:50:32;0.60;;;0.50;;
42670;SDS011;28283;55.426;37.756;2022-09-03T06:55:33;3.03;;;0.80;;
42670;SDS011;28283;55.426;37.756;2022-09-03T07:00:34;3.58;;;0.30;;
42670;SDS011;28283;55.426;37.756;2022-09-03T07:05:35;1.10;;;0.47;;
42670;SDS011;28283;55.426;37.756;2022-09-03T07:10:36;2.88;;;0.70;;
42670;SDS011;28283;55.426;37.756;2022-09-03T07:15:37;0.50;;;0.40;;
42670;SDS011;28283;55.426;37.756;2022-09-03T07:20:39;0.38;;;0.20;;
42670;SDS011;28283;55.426;37.756;2022-09-03T07:25:40;0.85;;;0.40;;
42670;SDS011;28283;55.426;37.756;2022-09-03T07:30:41;0.38;;;0.20;;
42670;SDS011;28283;55.426;37.756;2022-09-03T07:35:42;5.60;;;0.60;;
42670;SDS011;28283;55.426;37.756;2022-09-03T07:40:43;2.10;;;0.57;;
42670;SDS011;28283;55.426;37.756;2022-09-03T07:45:48;1.17;;;0.70;;
42670;SDS011;28283;55.426;37.756;2022-09-03T07:50:50;1.85;;;0.90;;
42670;SDS011;28283;55.426;37.756;2022-09-03T08:00:52;2.15;;;0.75;;
42670;SDS011;28283;55.426;37.756;2022-09-03T08:05:59;1.35;;;0.40;;
42670;SDS011;28283;55.426;37.756;2022-09-03T08:11:06;1.23;;;0.50;;
42670;SDS011;28283;55.426;37.756;2022-09-03T08:16:11;3.50;;;0.40;;
42670;SDS011;28283;55.426;37.756;2022-09-03T08:21:14;0.20;;;0.20;;
42670;SDS011;28283;55.426;37.756;2022-09-03T08:26:19;3.72;;;0.45;;
42670;SDS011;28283;55.426;37.756;2022-09-03T08:31:21;1.92;;;0.40;;
42670;SDS011;28283;55.426;37.756;2022-09-03T08:36:27;0.68;;;0.30;;
42670;SDS011;28283;55.426;37.756;2022-09-03T08:52:00;1.15;;;0.50;;
42670;SDS011;28283;55.426;37.756;2022-09-03T08:57:04;1.77;;;0.68;;
42670;SDS011;28283;55.426;37.756;2022-09-03T09:03:16;3.33;;;1.20;;
42670;SDS011;28283;55.426;37.756;2022-09-03T09:07:52;11.00;;;5.25;;
42670;SDS011;28283;55.426;37.756;2022-09-03T09:23:53;3.17;;;2.25;;
42670;SDS011;28283;55.426;37.756;2022-09-03T09:29:00;4.22;;;1.35;;
42670;SDS011;28283;55.426;37.756;2022-09-03T09:34:05;1.13;;;0.40;;
42670;SDS011;28283;55.426;37.756;2022-09-03T09:39:08;1.20;;;0.20;;
42670;SDS011;28283;55.426;37.756;2022-09-03T09:44:17;0.30;;;0.20;;
42670;SDS011;28283;55.426;37.756;2022-09-03T09:49:33;1.48;;;0.28;;
42670;SDS011;28283;55.426;37.756;2022-09-03T09:54:38;0.22;;;0.20;;
42670;SDS011;28283;55.426;37.756;2022-09-03T09:59:40;1.77;;;1.25;;
42670;SDS011;28283;55.426;37.756;2022-09-03T10:04:41;0.43;;;0.40;;
42670;SDS011;28283;55.426;37.756;2022-09-03T10:09:45;7.40;;;3.85;;
42670;SDS011;28283;55.426;37.756;2022-09-03T10:25:24;1.77;;;0.80;;
42670;SDS011;28283;55.426;37.756;2022-09-03T10:30:29;3.53;;;0.60;;
42670;SDS011;28283;55.426;37.756;2022-09-03T10:35:50;0.70;;;0.47;;
42670;SDS011;28283;55.426;37.756;2022-09-03T10:46:32;0.95;;;0.38;;
42670;SDS011;28283;55.426;37.756;2022-09-03T10:51:57;1.10;;;0.50;;
42670;SDS011;28283;55.426;37.756;2022-09-03T11:02:29;1.67;;;0.47;;
42670;SDS011;28283;55.426;37.756;2022-09-03T11:07:44;0.40;;;0.22;;
42670;SDS011;28283;55.426;37.756;2022-09-03T11:13:05;0.65;;;0.50;;
42670;SDS011;28283;55.426;37.756;2022-09-03T11:18:23;0.20;;;0.20;;
42670;SDS011;28283;55.426;37.756;2022-09-03T11:23:28;0.30;;;0.30;;
42670;SDS011;28283;55.426;37.756;2022-09-03T11:28:37;2.90;;;0.52;;
42670;SDS011;28283;55.426;37.756;2022-09-03T11:39:37;0.52;;;0.50;;
42670;SDS011;28283;55.426;37.756;2022-09-03T11:44:40;0.60;;;0.40;;
42670;SDS011;28283;55.426;37.756;2022-09-03T11:49:43;0.60;;;0.32;;
42670;SDS011;28283;55.426;37.756;2022-09-03T11:54:49;0.90;;;0.52;;
42670;SDS011;28283;55.426;37.756;2022-09-03T11:59:50;1.05;;;0.25;;
42670;SDS011;28283;55.426;37.756;2022-09-03T12:10:25;1.27;;;0.30;;
42670;SDS011;28283;55.426;37.756;2022-09-03T12:21:08;2.00;;;0.52;;
42670;SDS011;28283;55.426;37.756;2022-09-03T12:26:14;0.47;;;0.47;;
42670;SDS011;28283;55.426;37.756;2022-09-03T12:31:16;2.08;;;1.13;;
42670;SDS011;28283;55.426;37.756;2022-09-03T12:36:21;0.80;;;0.40;;
42670;SDS011;28283;55.426;37.756;2022-09-03T12:46:28;1.75;;;0.50;;
42670;SDS011;28283;55.426;37.756;2022-09-03T12:51:33;0.45;;;0.40;;
42670;SDS011;28283;55.426;37.756;2022-09-03T12:56:37;1.08;;;0.68;;
42670;SDS011;28283;55.426;37.756;2022-09-03T13:01:50;1.13;;;0.90;;
42670;SDS011;28283;55.426;37.756;2022-09-03T13:07:42;4.03;;;0.68;;
42670;SDS011;28283;55.426;37.756;2022-09-03T13:12:42;3.95;;;1.42;;
42670;SDS011;28283;55.426;37.756;2022-09-03T13:17:52;2.10;;;1.70;;
42670;SDS011;28283;55.426;37.756;2022-09-03T13:23:20;5.40;;;2.78;;
42670;SDS011;28283;55.426;37.756;2022-09-03T13:33:58;0.68;;;0.43;;
42670;SDS011;28283;55.426;37.756;2022-09-03T13:44:45;1.27;;;0.80;;
42670;SDS011;28283;55.426;37.756;2022-09-03T13:55:46;0.20;;;0.10;;
42670;SDS011;28283;55.426;37.756;2022-09-03T14:00:52;1.48;;;0.40;;
42670;SDS011;28283;55.426;37.756;2022-09-03T14:16:48;0.20;;;0.20;;
42670;SDS011;28283;55.426;37.756;2022-09-03T14:27:00;1.85;;;0.68;;
42670;SDS011;28283;55.426;37.756;2022-09-03T14:37:29;4.82;;;1.42;;
42670;SDS011;28283;55.426;37.756;2022-09-03T15:04:55;7.93;;;3.22;;
42670;SDS011;28283;55.426;37.756;2022-09-03T15:15:41;4.18;;;1.55;;
42670;SDS011;28283;55.426;37.756;2022-09-03T15:20:49;10.95;;;4.50;;
42670;SDS011;28283;55.426;37.756;2022-09-03T15:37:11;5.67;;;1.50;;
42670;SDS011;28283;55.426;37.756;2022-09-03T15:42:27;2.40;;;1.30;;
42670;SDS011;28283;55.426;37.756;2022-09-03T15:47:51;6.32;;;2.08;;
42670;SDS011;28283;55.426;37.756;2022-09-03T15:58:09;6.10;;;4.70;;
42670;SDS011;28283;55.426;37.756;2022-09-03T16:03:13;4.30;;;2.80;;
42670;SDS011;28283;55.426;37.756;2022-09-03T16:08:23;3.55;;;2.72;;
42670;SDS011;28283;55.426;37.756;2022-09-03T16:18:39;3.10;;;1.63;;
42670;SDS011;28283;55.426;37.756;2022-09-03T16:23:55;4.78;;;1.73;;
42670;SDS011;28283;55.426;37.756;2022-09-03T16:29:06;3.33;;;2.00;;
42670;SDS011;28283;55.426;37.756;2022-09-03T16:45:16;3.22;;;2.47;;
42670;SDS011;28283;55.426;37.756;2022-09-03T17:01:32;12.57;;;5.53;;
42670;SDS011;28283;55.426;37.756;2022-09-03T17:07:55;6.80;;;4.32;;
42670;SDS011;28283;55.426;37.756;2022-09-03T17:12:32;8.70;;;5.10;;
42670;SDS011;28283;55.426;37.756;2022-09-03T17:33:40;6.10;;;3.55;;
42670;SDS011;28283;55.426;37.756;2022-09-03T17:39:15;5.90;;;3.80;;
42670;SDS011;28283;55.426;37.756;2022-09-03T17:50:41;4.43;;;3.47;;
42670;SDS011;28283;55.426;37.756;2022-09-03T17:55:36;11.00;;;6.38;;
42670;SDS011;28283;55.426;37.756;2022-09-03T18:11:38;10.48;;;6.53;;
42670;SDS011;28283;55.426;37.756;2022-09-03T18:22:08;10.38;;;5.35;;
42670;SDS011;28283;55.426;37.756;2022-09-03T18:27:35;7.88;;;4.38;;
42670;SDS011;28283;55.426;37.756;2022-09-03T18:32:56;6.70;;;3.17;;
42670;SDS011;28283;55.426;37.756;2022-09-03T18:38:17;9.93;;;4.35;;
42670;SDS011;28283;55.426;37.756;2022-09-03T18:49:23;2.25;;;0.40;;
42670;SDS011;28283;55.426;37.756;2022-09-03T18:54:53;0.63;;;0.40;;
42670;SDS011;28283;55.426;37.756;2022-09-03T19:00:47;0.30;;;0.30;;
42670;SDS011;28283;55.426;37.756;2022-09-03T19:06:41;2.10;;;0.50;;
42670;SDS011;28283;55.426;37.756;2022-09-03T19:12:27;1.15;;;0.50;;
42670;SDS011;28283;55.426;37.756;2022-09-03T19:23:51;4.20;;;1.02;;
42670;SDS011;28283;55.426;37.756;2022-09-03T19:29:22;1.58;;;1.20;;
42670;SDS011;28283;55.426;37.756;2022-09-03T19:40:45;3.25;;;1.70;;
42670;SDS011;28283;55.426;37.756;2022-09-03T19:51:55;3.92;;;2.53;;
42670;SDS011;28283;55.426;37.756;2022-09-03T19:57:36;4.55;;;2.08;;
42670;SDS011;28283;55.426;37.756;2022-09-03T20:02:58;3.55;;;2.28;;
42670;SDS011;28283;55.426;37.756;2022-09-03T20:08:18;2.42;;;1.50;;
42670;SDS011;28283;55.426;37.756;2022-09-03T20:13:40;2.67;;;1.42;;
42670;SDS011;28283;55.426;37.756;2022-09-03T20:24:22;2.15;;;1.65;;
42670;SDS011;28283;55.426;37.756;2022-09-03T20:35:21;3.08;;;2.55;;
42670;SDS011;28283;55.426;37.756;2022-09-03T20:51:08;4.07;;;1.92;;
42670;SDS011;28283;55.426;37.756;2022-09-03T21:28:32;2.47;;;1.67;;
42670;SDS011;28283;55.426;37.756;2022-09-03T21:33:38;3.60;;;1.85;;
42670;SDS011;28283;55.426;37.756;2022-09-03T21:38:39;3.20;;;1.98;;
42670;SDS011;28283;55.426;37.756;2022-09-03T21:48:55;5.80;;;1.95;;
42670;SDS011;28283;55.426;37.756;2022-09-03T22:04:10;2.10;;;1.45;;
42670;SDS011;28283;55.426;37.756;2022-09-03T22:09:12;3.17;;;1.98;;
42670;SDS011;28283;55.426;37.756;2022-09-03T22:14:44;1.40;;;1.27;;
42670;SDS011;28283;55.426;37.756;2022-09-03T22:19:48;2.35;;;0.90;;
42670;SDS011;28283;55.426;37.756;2022-09-03T22:25:03;1.65;;;1.50;;
42670;SDS011;28283;55.426;37.756;2022-09-03T22:30:15;2.50;;;2.17;;
42670;SDS011;28283;55.426;37.756;2022-09-03T22:46:11;2.40;;;2.20;;
42670;SDS011;28283;55.426;37.756;2022-09-03T22:51:14;3.45;;;1.83;;
42670;SDS011;28283;55.426;37.756;2022-09-03T23:01:26;1.95;;;1.67;;
42670;SDS011;28283;55.426;37.756;2022-09-03T23:06:32;1.40;;;1.20;;
42670;SDS011;28283;55.426;37.756;2022-09-03T23:11:48;3.40;;;2.67;;
42670;SDS011;28283;55.426;37.756;2022-09-03T23:16:55;2.28;;;1.63;;
42670;SDS011;28283;55.426;37.756;2022-09-03T23:22:14;2.05;;;1.20;;
42670;SDS011;28283;55.426;37.756;2022-09-03T23:27:23;2.38;;;1.40;;
42670;SDS011;28283;55.426;37.756;2022-09-03T23:32:28;1.25;;;1.02;;
42670;SDS011;28283;55.426;37.756;2022-09-03T23:43:05;1.73;;;1.58;;
42670;SDS011;28283;55.426;37.756;2022-09-03T23:59:10;2.13;;;1.90;;
